Terminal Aerodrome Forecast
Issued by NWS Buffalo, NY

Home | Current Version | Previous Version | Text Only | Print | Product List | Glossary On
Versions: 1 2 3 4 5 6 7 8 9 10 11 12 13 14 15 16 17 18 19 20 21 22 23 24
000
FTUS41 KBUF 261500 AAA
TAFROC
TAF AMD
KROC 261520Z 2615/2712 27010KT P6SM BKN080
     FM261800 25008KT P6SM SCT080
     FM270300 21007KT P6SM VCSH BKN070
     FM271000 24008KT P6SM BKN030=

USA.gov is the U.S. government's official web portal to all federal, state and local government web resources and services.